sensor_id;sensor_type;location;lat;lon;timestamp;P1;durP1;ratioP1;P2;durP2;ratioP2
68256;SDS011;55069;51.568;4.656;2023-05-23T00:00:41;18.83;;;10.67;;
68256;SDS011;55069;51.568;4.656;2023-05-23T00:03:07;19.02;;;9.88;;
68256;SDS011;55069;51.568;4.656;2023-05-23T00:05:33;19.10;;;10.63;;
68256;SDS011;55069;51.568;4.656;2023-05-23T00:08:02;15.73;;;10.30;;
68256;SDS011;55069;51.568;4.656;2023-05-23T00:10:27;16.40;;;10.50;;
68256;SDS011;55069;51.568;4.656;2023-05-23T00:12:53;18.17;;;10.57;;
68256;SDS011;55069;51.568;4.656;2023-05-23T00:15:19;19.75;;;10.35;;
68256;SDS011;55069;51.568;4.656;2023-05-23T00:17:45;18.57;;;10.40;;
68256;SDS011;55069;51.568;4.656;2023-05-23T00:20:11;17.58;;;10.48;;
68256;SDS011;55069;51.568;4.656;2023-05-23T00:22:37;15.40;;;9.77;;
68256;SDS011;55069;51.568;4.656;2023-05-23T00:25:06;23.77;;;11.60;;
68256;SDS011;55069;51.568;4.656;2023-05-23T00:27:32;19.37;;;10.40;;
68256;SDS011;55069;51.568;4.656;2023-05-23T00:29:58;20.40;;;10.35;;
68256;SDS011;55069;51.568;4.656;2023-05-23T00:32:23;19.97;;;10.20;;
68256;SDS011;55069;51.568;4.656;2023-05-23T00:34:49;20.50;;;10.17;;
68256;SDS011;55069;51.568;4.656;2023-05-23T00:37:18;18.98;;;10.27;;
68256;SDS011;55069;51.568;4.656;2023-05-23T00:39:46;27.80;;;12.00;;
68256;SDS011;55069;51.568;4.656;2023-05-23T00:42:12;22.70;;;12.23;;
68256;SDS011;55069;51.568;4.656;2023-05-23T00:44:38;26.83;;;11.73;;
68256;SDS011;55069;51.568;4.656;2023-05-23T00:47:04;27.47;;;11.73;;
68256;SDS011;55069;51.568;4.656;2023-05-23T00:49:32;26.45;;;11.85;;
68256;SDS011;55069;51.568;4.656;2023-05-23T00:51:58;29.55;;;12.25;;
68256;SDS011;55069;51.568;4.656;2023-05-23T00:54:28;27.98;;;11.55;;
68256;SDS011;55069;51.568;4.656;2023-05-23T00:56:58;28.23;;;12.63;;
68256;SDS011;55069;51.568;4.656;2023-05-23T00:59:24;33.47;;;14.03;;
68256;SDS011;55069;51.568;4.656;2023-05-23T01:01:50;33.80;;;12.88;;
68256;SDS011;55069;51.568;4.656;2023-05-23T01:04:17;30.98;;;13.25;;
68256;SDS011;55069;51.568;4.656;2023-05-23T01:06:53;33.13;;;14.38;;
68256;SDS011;55069;51.568;4.656;2023-05-23T01:09:19;37.00;;;14.52;;
68256;SDS011;55069;51.568;4.656;2023-05-23T01:11:51;34.50;;;14.73;;
68256;SDS011;55069;51.568;4.656;2023-05-23T01:14:34;36.88;;;13.95;;
68256;SDS011;55069;51.568;4.656;2023-05-23T01:17:09;39.42;;;14.70;;
68256;SDS011;55069;51.568;4.656;2023-05-23T01:19:59;37.03;;;13.95;;
68256;SDS011;55069;51.568;4.656;2023-05-23T01:22:36;32.45;;;14.35;;
68256;SDS011;55069;51.568;4.656;2023-05-23T01:28:18;39.53;;;13.02;;
68256;SDS011;55069;51.568;4.656;2023-05-23T01:30:46;30.30;;;12.93;;
68256;SDS011;55069;51.568;4.656;2023-05-23T01:33:15;30.15;;;12.57;;
68256;SDS011;55069;51.568;4.656;2023-05-23T01:35:42;35.95;;;13.13;;
68256;SDS011;55069;51.568;4.656;2023-05-23T01:38:08;31.70;;;11.83;;
68256;SDS011;55069;51.568;4.656;2023-05-23T01:40:34;28.35;;;12.10;;
68256;SDS011;55069;51.568;4.656;2023-05-23T01:43:00;19.17;;;10.13;;
68256;SDS011;55069;51.568;4.656;2023-05-23T01:45:27;25.77;;;10.67;;
68256;SDS011;55069;51.568;4.656;2023-05-23T01:47:53;25.45;;;10.10;;
68256;SDS011;55069;51.568;4.656;2023-05-23T01:50:21;20.17;;;9.65;;
68256;SDS011;55069;51.568;4.656;2023-05-23T01:52:48;17.88;;;8.70;;
68256;SDS011;55069;51.568;4.656;2023-05-23T01:55:15;18.77;;;8.63;;
68256;SDS011;55069;51.568;4.656;2023-05-23T01:57:49;17.50;;;7.93;;
68256;SDS011;55069;51.568;4.656;2023-05-23T02:00:15;18.30;;;8.60;;
68256;SDS011;55069;51.568;4.656;2023-05-23T02:02:44;20.80;;;7.75;;
68256;SDS011;55069;51.568;4.656;2023-05-23T02:05:10;22.85;;;7.25;;
68256;SDS011;55069;51.568;4.656;2023-05-23T02:07:36;19.43;;;7.80;;
68256;SDS011;55069;51.568;4.656;2023-05-23T02:10:02;15.52;;;7.28;;
68256;SDS011;55069;51.568;4.656;2023-05-23T02:12:28;16.57;;;6.80;;
68256;SDS011;55069;51.568;4.656;2023-05-23T02:14:54;18.35;;;6.95;;
68256;SDS011;55069;51.568;4.656;2023-05-23T02:17:20;15.13;;;6.77;;
68256;SDS011;55069;51.568;4.656;2023-05-23T02:19:48;17.10;;;6.28;;
68256;SDS011;55069;51.568;4.656;2023-05-23T02:22:15;14.45;;;7.10;;
68256;SDS011;55069;51.568;4.656;2023-05-23T02:24:40;13.75;;;6.68;;
68256;SDS011;55069;51.568;4.656;2023-05-23T02:27:06;13.23;;;6.97;;
68256;SDS011;55069;51.568;4.656;2023-05-23T02:29:32;14.80;;;6.82;;
68256;SDS011;55069;51.568;4.656;2023-05-23T02:31:58;12.43;;;6.80;;
68256;SDS011;55069;51.568;4.656;2023-05-23T02:34:23;13.07;;;6.23;;
68256;SDS011;55069;51.568;4.656;2023-05-23T02:36:49;16.13;;;7.55;;
68256;SDS011;55069;51.568;4.656;2023-05-23T02:39:15;13.40;;;6.45;;
68256;SDS011;55069;51.568;4.656;2023-05-23T02:41:43;16.00;;;7.70;;
68256;SDS011;55069;51.568;4.656;2023-05-23T02:44:08;20.85;;;7.95;;
68256;SDS011;55069;51.568;4.656;2023-05-23T02:46:34;14.13;;;7.17;;
68256;SDS011;55069;51.568;4.656;2023-05-23T02:49:01;14.45;;;6.93;;
68256;SDS011;55069;51.568;4.656;2023-05-23T02:51:27;17.07;;;7.90;;
68256;SDS011;55069;51.568;4.656;2023-05-23T02:53:52;13.20;;;6.40;;
68256;SDS011;55069;51.568;4.656;2023-05-23T02:56:19;17.77;;;7.30;;
68256;SDS011;55069;51.568;4.656;2023-05-23T02:58:46;20.35;;;7.78;;
68256;SDS011;55069;51.568;4.656;2023-05-23T03:01:12;17.27;;;7.30;;
68256;SDS011;55069;51.568;4.656;2023-05-23T03:03:37;19.30;;;8.38;;
68256;SDS011;55069;51.568;4.656;2023-05-23T03:06:04;20.08;;;7.60;;
68256;SDS011;55069;51.568;4.656;2023-05-23T03:08:30;17.53;;;6.83;;
68256;SDS011;55069;51.568;4.656;2023-05-23T03:10:56;16.55;;;8.18;;
68256;SDS011;55069;51.568;4.656;2023-05-23T03:13:21;16.03;;;8.30;;
68256;SDS011;55069;51.568;4.656;2023-05-23T03:15:47;15.85;;;8.02;;
68256;SDS011;55069;51.568;4.656;2023-05-23T03:18:13;17.57;;;8.27;;
68256;SDS011;55069;51.568;4.656;2023-05-23T03:20:38;19.70;;;8.07;;
68256;SDS011;55069;51.568;4.656;2023-05-23T03:23:04;20.40;;;8.15;;
68256;SDS011;55069;51.568;4.656;2023-05-23T03:25:29;21.27;;;8.63;;
68256;SDS011;55069;51.568;4.656;2023-05-23T03:27:55;20.13;;;8.03;;
68256;SDS011;55069;51.568;4.656;2023-05-23T03:30:21;14.95;;;7.30;;
68256;SDS011;55069;51.568;4.656;2023-05-23T03:32:46;26.53;;;8.50;;
68256;SDS011;55069;51.568;4.656;2023-05-23T03:35:12;21.63;;;8.50;;
68256;SDS011;55069;51.568;4.656;2023-05-23T03:37:38;21.02;;;7.75;;
68256;SDS011;55069;51.568;4.656;2023-05-23T03:40:03;29.85;;;8.27;;
68256;SDS011;55069;51.568;4.656;2023-05-23T03:42:31;22.03;;;7.40;;
68256;SDS011;55069;51.568;4.656;2023-05-23T03:44:57;21.80;;;6.82;;
68256;SDS011;55069;51.568;4.656;2023-05-23T03:47:22;20.13;;;7.57;;
68256;SDS011;55069;51.568;4.656;2023-05-23T03:49:49;26.05;;;7.97;;
68256;SDS011;55069;51.568;4.656;2023-05-23T03:52:15;28.65;;;7.43;;
68256;SDS011;55069;51.568;4.656;2023-05-23T03:54:40;31.53;;;8.67;;
68256;SDS011;55069;51.568;4.656;2023-05-23T03:57:08;22.88;;;7.78;;
68256;SDS011;55069;51.568;4.656;2023-05-23T03:59:35;24.20;;;7.93;;
68256;SDS011;55069;51.568;4.656;2023-05-23T04:02:02;32.78;;;7.75;;
68256;SDS011;55069;51.568;4.656;2023-05-23T04:04:28;25.93;;;7.90;;
68256;SDS011;55069;51.568;4.656;2023-05-23T04:06:54;25.77;;;7.32;;
68256;SDS011;55069;51.568;4.656;2023-05-23T04:09:20;25.08;;;7.75;;
68256;SDS011;55069;51.568;4.656;2023-05-23T04:11:47;25.93;;;8.07;;
68256;SDS011;55069;51.568;4.656;2023-05-23T04:14:13;19.75;;;7.13;;
68256;SDS011;55069;51.568;4.656;2023-05-23T04:16:39;25.70;;;7.15;;
68256;SDS011;55069;51.568;4.656;2023-05-23T04:19:09;24.25;;;6.32;;
68256;SDS011;55069;51.568;4.656;2023-05-23T04:21:36;24.42;;;7.05;;
68256;SDS011;55069;51.568;4.656;2023-05-23T04:24:06;23.30;;;7.23;;
68256;SDS011;55069;51.568;4.656;2023-05-23T04:26:32;30.58;;;7.15;;
68256;SDS011;55069;51.568;4.656;2023-05-23T04:29:01;26.98;;;6.38;;
68256;SDS011;55069;51.568;4.656;2023-05-23T04:31:31;18.52;;;5.38;;
68256;SDS011;55069;51.568;4.656;2023-05-23T04:33:58;27.05;;;6.35;;
68256;SDS011;55069;51.568;4.656;2023-05-23T04:36:23;23.93;;;6.80;;
68256;SDS011;55069;51.568;4.656;2023-05-23T04:38:52;20.05;;;6.28;;
68256;SDS011;55069;51.568;4.656;2023-05-23T04:41:18;14.90;;;5.67;;
68256;SDS011;55069;51.568;4.656;2023-05-23T04:44:04;21.30;;;5.97;;
68256;SDS011;55069;51.568;4.656;2023-05-23T04:46:40;22.75;;;6.68;;
68256;SDS011;55069;51.568;4.656;2023-05-23T04:49:36;22.40;;;5.43;;
68256;SDS011;55069;51.568;4.656;2023-05-23T04:52:01;27.03;;;5.47;;
68256;SDS011;55069;51.568;4.656;2023-05-23T04:54:28;24.15;;;6.30;;
68256;SDS011;55069;51.568;4.656;2023-05-23T04:56:57;24.23;;;5.97;;
68256;SDS011;55069;51.568;4.656;2023-05-23T04:59:24;24.38;;;5.63;;
68256;SDS011;55069;51.568;4.656;2023-05-23T05:01:52;18.52;;;4.40;;
68256;SDS011;55069;51.568;4.656;2023-05-23T05:04:18;16.00;;;5.27;;
68256;SDS011;55069;51.568;4.656;2023-05-23T05:06:44;21.40;;;5.30;;
68256;SDS011;55069;51.568;4.656;2023-05-23T05:09:12;20.98;;;4.88;;
68256;SDS011;55069;51.568;4.656;2023-05-23T05:11:38;14.53;;;4.37;;
68256;SDS011;55069;51.568;4.656;2023-05-23T05:14:03;17.00;;;4.13;;
68256;SDS011;55069;51.568;4.656;2023-05-23T05:16:29;11.97;;;4.23;;
68256;SDS011;55069;51.568;4.656;2023-05-23T05:18:54;12.90;;;3.80;;
68256;SDS011;55069;51.568;4.656;2023-05-23T05:21:21;17.17;;;4.10;;
68256;SDS011;55069;51.568;4.656;2023-05-23T05:23:47;18.80;;;4.45;;
68256;SDS011;55069;51.568;4.656;2023-05-23T05:26:15;18.97;;;4.30;;
68256;SDS011;55069;51.568;4.656;2023-05-23T05:28:41;18.00;;;4.47;;
68256;SDS011;55069;51.568;4.656;2023-05-23T05:31:06;12.15;;;4.63;;
68256;SDS011;55069;51.568;4.656;2023-05-23T05:33:34;13.43;;;3.90;;
68256;SDS011;55069;51.568;4.656;2023-05-23T05:36:12;16.85;;;3.88;;
68256;SDS011;55069;51.568;4.656;2023-05-23T05:38:38;12.70;;;4.00;;
68256;SDS011;55069;51.568;4.656;2023-05-23T05:41:04;13.07;;;4.30;;
68256;SDS011;55069;51.568;4.656;2023-05-23T05:43:33;14.48;;;4.47;;
68256;SDS011;55069;51.568;4.656;2023-05-23T05:46:00;18.90;;;4.70;;
68256;SDS011;55069;51.568;4.656;2023-05-23T05:48:26;16.83;;;4.17;;
68256;SDS011;55069;51.568;4.656;2023-05-23T05:50:53;16.85;;;4.38;;
68256;SDS011;55069;51.568;4.656;2023-05-23T05:53:19;21.03;;;5.50;;
68256;SDS011;55069;51.568;4.656;2023-05-23T05:55:44;15.48;;;5.18;;
68256;SDS011;55069;51.568;4.656;2023-05-23T05:58:10;17.27;;;5.13;;
68256;SDS011;55069;51.568;4.656;2023-05-23T06:00:51;18.10;;;5.00;;
68256;SDS011;55069;51.568;4.656;2023-05-23T06:03:19;16.73;;;4.78;;
68256;SDS011;55069;51.568;4.656;2023-05-23T06:05:50;13.20;;;5.13;;
68256;SDS011;55069;51.568;4.656;2023-05-23T06:08:19;23.42;;;5.57;;
68256;SDS011;55069;51.568;4.656;2023-05-23T06:10:45;20.25;;;5.72;;
68256;SDS011;55069;51.568;4.656;2023-05-23T06:13:11;14.57;;;5.55;;
68256;SDS011;55069;51.568;4.656;2023-05-23T06:15:38;21.63;;;5.67;;
68256;SDS011;55069;51.568;4.656;2023-05-23T06:18:04;21.90;;;6.00;;
68256;SDS011;55069;51.568;4.656;2023-05-23T06:20:30;12.93;;;5.10;;
68256;SDS011;55069;51.568;4.656;2023-05-23T06:22:58;22.55;;;6.15;;
68256;SDS011;55069;51.568;4.656;2023-05-23T06:25:24;22.23;;;5.88;;
68256;SDS011;55069;51.568;4.656;2023-05-23T06:27:51;21.77;;;6.03;;
68256;SDS011;55069;51.568;4.656;2023-05-23T06:30:16;21.50;;;5.53;;
68256;SDS011;55069;51.568;4.656;2023-05-23T06:32:43;15.13;;;5.82;;
68256;SDS011;55069;51.568;4.656;2023-05-23T06:35:09;16.67;;;5.50;;
68256;SDS011;55069;51.568;4.656;2023-05-23T06:37:35;9.95;;;5.13;;
68256;SDS011;55069;51.568;4.656;2023-05-23T06:40:00;13.10;;;5.30;;
68256;SDS011;55069;51.568;4.656;2023-05-23T06:42:26;19.27;;;5.80;;
68256;SDS011;55069;51.568;4.656;2023-05-23T06:45:21;15.43;;;5.10;;
68256;SDS011;55069;51.568;4.656;2023-05-23T06:47:46;15.70;;;5.38;;
68256;SDS011;55069;51.568;4.656;2023-05-23T06:50:13;14.03;;;5.27;;
68256;SDS011;55069;51.568;4.656;2023-05-23T06:52:38;15.15;;;5.63;;
68256;SDS011;55069;51.568;4.656;2023-05-23T06:55:06;12.67;;;5.13;;
68256;SDS011;55069;51.568;4.656;2023-05-23T06:57:32;17.95;;;4.82;;
68256;SDS011;55069;51.568;4.656;2023-05-23T06:59:58;18.80;;;5.15;;
68256;SDS011;55069;51.568;4.656;2023-05-23T07:02:24;16.43;;;4.77;;
68256;SDS011;55069;51.568;4.656;2023-05-23T07:04:49;16.55;;;4.60;;
68256;SDS011;55069;51.568;4.656;2023-05-23T07:07:25;22.50;;;5.33;;
68256;SDS011;55069;51.568;4.656;2023-05-23T07:09:50;15.95;;;5.30;;
68256;SDS011;55069;51.568;4.656;2023-05-23T07:12:17;16.90;;;5.10;;
68256;SDS011;55069;51.568;4.656;2023-05-23T07:14:45;11.07;;;4.47;;
68256;SDS011;55069;51.568;4.656;2023-05-23T07:17:11;18.67;;;4.97;;
68256;SDS011;55069;51.568;4.656;2023-05-23T07:19:37;15.85;;;5.22;;
68256;SDS011;55069;51.568;4.656;2023-05-23T07:22:03;17.40;;;5.43;;
68256;SDS011;55069;51.568;4.656;2023-05-23T07:24:30;18.52;;;4.88;;
68256;SDS011;55069;51.568;4.656;2023-05-23T07:26:56;18.77;;;5.10;;
68256;SDS011;55069;51.568;4.656;2023-05-23T07:29:21;13.57;;;5.25;;
68256;SDS011;55069;51.568;4.656;2023-05-23T07:31:50;15.48;;;4.85;;
68256;SDS011;55069;51.568;4.656;2023-05-23T07:34:16;15.43;;;5.07;;
68256;SDS011;55069;51.568;4.656;2023-05-23T07:36:49;16.00;;;4.30;;
68256;SDS011;55069;51.568;4.656;2023-05-23T07:39:15;14.13;;;4.10;;
68256;SDS011;55069;51.568;4.656;2023-05-23T07:41:46;14.32;;;3.88;;
68256;SDS011;55069;51.568;4.656;2023-05-23T07:44:16;12.40;;;4.40;;
68256;SDS011;55069;51.568;4.656;2023-05-23T07:46:42;8.23;;;3.63;;
68256;SDS011;55069;51.568;4.656;2023-05-23T07:49:08;12.45;;;4.38;;
68256;SDS011;55069;51.568;4.656;2023-05-23T07:51:34;11.13;;;3.40;;
68256;SDS011;55069;51.568;4.656;2023-05-23T07:54:00;9.55;;;3.20;;
68256;SDS011;55069;51.568;4.656;2023-05-23T07:56:25;10.60;;;4.30;;
68256;SDS011;55069;51.568;4.656;2023-05-23T07:58:51;11.57;;;3.97;;
68256;SDS011;55069;51.568;4.656;2023-05-23T08:01:17;14.05;;;4.55;;
68256;SDS011;55069;51.568;4.656;2023-05-23T08:04:02;8.50;;;3.80;;
68256;SDS011;55069;51.568;4.656;2023-05-23T08:06:32;16.10;;;3.70;;
68256;SDS011;55069;51.568;4.656;2023-05-23T08:09:01;10.60;;;3.78;;
68256;SDS011;55069;51.568;4.656;2023-05-23T08:11:28;13.27;;;4.25;;
68256;SDS011;55069;51.568;4.656;2023-05-23T08:13:55;9.68;;;3.65;;
68256;SDS011;55069;51.568;4.656;2023-05-23T08:16:47;14.30;;;4.47;;
68256;SDS011;55069;51.568;4.656;2023-05-23T08:19:19;9.15;;;4.03;;
68256;SDS011;55069;51.568;4.656;2023-05-23T08:21:45;12.07;;;3.70;;
68256;SDS011;55069;51.568;4.656;2023-05-23T08:24:11;7.65;;;3.78;;
68256;SDS011;55069;51.568;4.656;2023-05-23T08:26:38;15.67;;;3.70;;
68256;SDS011;55069;51.568;4.656;2023-05-23T08:29:06;11.20;;;4.03;;
68256;SDS011;55069;51.568;4.656;2023-05-23T08:31:34;9.30;;;3.13;;
68256;SDS011;55069;51.568;4.656;2023-05-23T08:33:59;12.07;;;3.47;;
68256;SDS011;55069;51.568;4.656;2023-05-23T08:36:27;10.43;;;3.65;;
68256;SDS011;55069;51.568;4.656;2023-05-23T08:38:53;9.57;;;3.10;;
68256;SDS011;55069;51.568;4.656;2023-05-23T08:41:26;10.90;;;3.00;;
68256;SDS011;55069;51.568;4.656;2023-05-23T08:44:01;15.80;;;2.33;;
68256;SDS011;55069;51.568;4.656;2023-05-23T08:46:32;11.65;;;2.80;;
68256;SDS011;55069;51.568;4.656;2023-05-23T08:48:58;9.73;;;2.22;;
68256;SDS011;55069;51.568;4.656;2023-05-23T08:51:26;7.95;;;2.47;;
68256;SDS011;55069;51.568;4.656;2023-05-23T08:53:53;13.38;;;2.55;;
68256;SDS011;55069;51.568;4.656;2023-05-23T08:56:23;8.50;;;2.43;;
68256;SDS011;55069;51.568;4.656;2023-05-23T08:58:50;14.13;;;2.50;;
68256;SDS011;55069;51.568;4.656;2023-05-23T09:01:19;14.55;;;2.50;;
68256;SDS011;55069;51.568;4.656;2023-05-23T09:03:48;12.38;;;2.55;;
68256;SDS011;55069;51.568;4.656;2023-05-23T09:06:35;12.32;;;2.53;;
68256;SDS011;55069;51.568;4.656;2023-05-23T09:09:01;14.63;;;2.80;;
68256;SDS011;55069;51.568;4.656;2023-05-23T09:11:28;17.00;;;2.67;;
68256;SDS011;55069;51.568;4.656;2023-05-23T09:13:55;16.88;;;2.65;;
68256;SDS011;55069;51.568;4.656;2023-05-23T09:16:22;14.05;;;2.58;;
68256;SDS011;55069;51.568;4.656;2023-05-23T09:18:57;17.63;;;2.85;;
68256;SDS011;55069;51.568;4.656;2023-05-23T09:21:23;11.33;;;2.50;;
68256;SDS011;55069;51.568;4.656;2023-05-23T09:23:57;11.98;;;2.38;;
68256;SDS011;55069;51.568;4.656;2023-05-23T09:26:24;10.43;;;2.60;;
68256;SDS011;55069;51.568;4.656;2023-05-23T09:28:50;15.20;;;2.47;;
68256;SDS011;55069;51.568;4.656;2023-05-23T09:31:15;14.83;;;2.40;;
68256;SDS011;55069;51.568;4.656;2023-05-23T09:33:45;15.38;;;2.85;;
68256;SDS011;55069;51.568;4.656;2023-05-23T09:36:16;9.73;;;2.33;;
68256;SDS011;55069;51.568;4.656;2023-05-23T09:38:43;8.38;;;2.53;;
68256;SDS011;55069;51.568;4.656;2023-05-23T09:41:11;9.18;;;2.30;;
68256;SDS011;55069;51.568;4.656;2023-05-23T09:43:38;13.70;;;2.70;;
68256;SDS011;55069;51.568;4.656;2023-05-23T09:46:08;16.20;;;2.80;;
68256;SDS011;55069;51.568;4.656;2023-05-23T09:48:35;11.63;;;2.05;;
68256;SDS011;55069;51.568;4.656;2023-05-23T09:51:05;17.30;;;2.85;;
68256;SDS011;55069;51.568;4.656;2023-05-23T09:53:33;13.80;;;2.58;;
68256;SDS011;55069;51.568;4.656;2023-05-23T09:55:59;16.35;;;2.95;;
68256;SDS011;55069;51.568;4.656;2023-05-23T09:58:27;8.32;;;2.22;;
68256;SDS011;55069;51.568;4.656;2023-05-23T10:00:54;15.55;;;3.15;;
68256;SDS011;55069;51.568;4.656;2023-05-23T10:03:30;10.45;;;2.42;;
68256;SDS011;55069;51.568;4.656;2023-05-23T10:06:00;11.65;;;2.95;;
68256;SDS011;55069;51.568;4.656;2023-05-23T10:08:38;18.23;;;3.10;;
68256;SDS011;55069;51.568;4.656;2023-05-23T10:13:59;14.80;;;3.08;;
68256;SDS011;55069;51.568;4.656;2023-05-23T10:16:26;13.05;;;2.63;;
68256;SDS011;55069;51.568;4.656;2023-05-23T10:19:05;18.45;;;3.17;;
68256;SDS011;55069;51.568;4.656;2023-05-23T10:21:38;13.97;;;2.80;;
68256;SDS011;55069;51.568;4.656;2023-05-23T10:24:08;13.35;;;2.95;;
68256;SDS011;55069;51.568;4.656;2023-05-23T10:26:36;13.38;;;2.70;;
68256;SDS011;55069;51.568;4.656;2023-05-23T10:29:01;14.00;;;2.97;;
68256;SDS011;55069;51.568;4.656;2023-05-23T10:31:27;17.10;;;3.07;;
68256;SDS011;55069;51.568;4.656;2023-05-23T10:34:03;16.10;;;3.28;;
68256;SDS011;55069;51.568;4.656;2023-05-23T10:36:40;14.60;;;2.90;;
68256;SDS011;55069;51.568;4.656;2023-05-23T10:39:15;11.77;;;2.77;;
68256;SDS011;55069;51.568;4.656;2023-05-23T10:41:55;14.50;;;3.17;;
68256;SDS011;55069;51.568;4.656;2023-05-23T10:44:28;20.63;;;2.88;;
68256;SDS011;55069;51.568;4.656;2023-05-23T10:46:55;12.25;;;3.05;;
68256;SDS011;55069;51.568;4.656;2023-05-23T10:52:05;15.00;;;3.00;;
68256;SDS011;55069;51.568;4.656;2023-05-23T10:54:35;13.40;;;2.92;;
68256;SDS011;55069;51.568;4.656;2023-05-23T10:57:05;14.77;;;3.50;;
68256;SDS011;55069;51.568;4.656;2023-05-23T10:59:31;12.63;;;3.10;;
68256;SDS011;55069;51.568;4.656;2023-05-23T11:01:56;13.70;;;3.15;;
68256;SDS011;55069;51.568;4.656;2023-05-23T11:04:27;18.02;;;3.25;;
68256;SDS011;55069;51.568;4.656;2023-05-23T11:06:53;13.98;;;3.10;;
68256;SDS011;55069;51.568;4.656;2023-05-23T11:09:20;11.43;;;3.23;;
68256;SDS011;55069;51.568;4.656;2023-05-23T11:14:19;20.98;;;3.40;;
68256;SDS011;55069;51.568;4.656;2023-05-23T11:16:57;19.65;;;2.80;;
68256;SDS011;55069;51.568;4.656;2023-05-23T11:19:24;18.38;;;3.67;;
68256;SDS011;55069;51.568;4.656;2023-05-23T11:21:58;20.33;;;3.20;;
68256;SDS011;55069;51.568;4.656;2023-05-23T11:27:24;13.30;;;3.35;;
68256;SDS011;55069;51.568;4.656;2023-05-23T11:30:16;17.90;;;3.78;;
68256;SDS011;55069;51.568;4.656;2023-05-23T11:32:51;17.77;;;3.40;;
68256;SDS011;55069;51.568;4.656;2023-05-23T11:35:18;14.30;;;3.20;;
68256;SDS011;55069;51.568;4.656;2023-05-23T11:37:45;16.80;;;3.40;;
68256;SDS011;55069;51.568;4.656;2023-05-23T11:42:49;20.83;;;3.53;;
68256;SDS011;55069;51.568;4.656;2023-05-23T11:45:18;8.45;;;2.45;;
68256;SDS011;55069;51.568;4.656;2023-05-23T11:47:44;16.35;;;2.70;;
68256;SDS011;55069;51.568;4.656;2023-05-23T11:50:09;11.32;;;3.17;;
68256;SDS011;55069;51.568;4.656;2023-05-23T11:52:35;14.90;;;2.93;;
68256;SDS011;55069;51.568;4.656;2023-05-23T11:55:00;10.27;;;2.60;;
68256;SDS011;55069;51.568;4.656;2023-05-23T11:57:26;19.27;;;3.28;;
68256;SDS011;55069;51.568;4.656;2023-05-23T11:59:52;18.25;;;3.22;;
68256;SDS011;55069;51.568;4.656;2023-05-23T12:02:20;16.00;;;2.40;;
68256;SDS011;55069;51.568;4.656;2023-05-23T12:04:47;14.07;;;2.95;;
68256;SDS011;55069;51.568;4.656;2023-05-23T12:07:13;18.85;;;3.35;;
68256;SDS011;55069;51.568;4.656;2023-05-23T12:09:42;17.03;;;3.00;;
68256;SDS011;55069;51.568;4.656;2023-05-23T12:12:08;13.95;;;2.90;;
68256;SDS011;55069;51.568;4.656;2023-05-23T12:14:34;12.25;;;2.58;;
68256;SDS011;55069;51.568;4.656;2023-05-23T12:17:03;14.93;;;3.13;;
68256;SDS011;55069;51.568;4.656;2023-05-23T12:19:28;12.13;;;2.97;;
68256;SDS011;55069;51.568;4.656;2023-05-23T12:21:55;14.20;;;2.97;;
68256;SDS011;55069;51.568;4.656;2023-05-23T12:24:21;12.40;;;2.80;;
68256;SDS011;55069;51.568;4.656;2023-05-23T12:26:51;15.63;;;3.67;;
68256;SDS011;55069;51.568;4.656;2023-05-23T12:29:27;15.02;;;3.17;;
68256;SDS011;55069;51.568;4.656;2023-05-23T12:31:54;11.93;;;3.70;;
68256;SDS011;55069;51.568;4.656;2023-05-23T12:34:25;15.23;;;2.88;;
68256;SDS011;55069;51.568;4.656;2023-05-23T12:36:55;11.82;;;2.90;;
68256;SDS011;55069;51.568;4.656;2023-05-23T12:39:24;16.93;;;2.90;;
68256;SDS011;55069;51.568;4.656;2023-05-23T12:42:15;10.93;;;2.90;;
68256;SDS011;55069;51.568;4.656;2023-05-23T12:44:40;14.95;;;3.05;;
68256;SDS011;55069;51.568;4.656;2023-05-23T12:47:07;18.38;;;2.92;;
68256;SDS011;55069;51.568;4.656;2023-05-23T12:49:34;14.05;;;2.70;;
68256;SDS011;55069;51.568;4.656;2023-05-23T12:52:00;20.13;;;3.17;;
68256;SDS011;55069;51.568;4.656;2023-05-23T12:54:25;17.42;;;3.47;;
68256;SDS011;55069;51.568;4.656;2023-05-23T12:56:51;13.80;;;3.07;;
68256;SDS011;55069;51.568;4.656;2023-05-23T12:59:16;14.20;;;2.73;;
68256;SDS011;55069;51.568;4.656;2023-05-23T13:01:42;18.90;;;2.60;;
68256;SDS011;55069;51.568;4.656;2023-05-23T13:04:08;12.18;;;2.17;;
68256;SDS011;55069;51.568;4.656;2023-05-23T13:06:33;13.93;;;2.80;;
68256;SDS011;55069;51.568;4.656;2023-05-23T13:08:59;14.20;;;3.00;;
68256;SDS011;55069;51.568;4.656;2023-05-23T13:11:24;14.48;;;2.95;;
68256;SDS011;55069;51.568;4.656;2023-05-23T13:13:51;8.43;;;2.58;;
68256;SDS011;55069;51.568;4.656;2023-05-23T13:16:16;13.50;;;3.00;;
68256;SDS011;55069;51.568;4.656;2023-05-23T13:18:43;21.65;;;2.75;;
68256;SDS011;55069;51.568;4.656;2023-05-23T13:21:08;23.10;;;3.40;;
68256;SDS011;55069;51.568;4.656;2023-05-23T13:23:34;12.80;;;2.60;;
68256;SDS011;55069;51.568;4.656;2023-05-23T13:26:01;12.05;;;2.95;;
68256;SDS011;55069;51.568;4.656;2023-05-23T13:28:27;13.40;;;2.90;;
68256;SDS011;55069;51.568;4.656;2023-05-23T13:30:53;10.65;;;2.92;;
68256;SDS011;55069;51.568;4.656;2023-05-23T13:33:18;14.50;;;2.67;;
68256;SDS011;55069;51.568;4.656;2023-05-23T13:35:47;15.00;;;2.88;;
68256;SDS011;55069;51.568;4.656;2023-05-23T13:38:14;13.77;;;2.72;;
68256;SDS011;55069;51.568;4.656;2023-05-23T13:40:40;12.60;;;2.90;;
68256;SDS011;55069;51.568;4.656;2023-05-23T13:43:05;8.00;;;2.57;;
68256;SDS011;55069;51.568;4.656;2023-05-23T13:45:31;10.30;;;2.73;;
68256;SDS011;55069;51.568;4.656;2023-05-23T13:47:58;13.57;;;2.78;;
68256;SDS011;55069;51.568;4.656;2023-05-23T13:50:24;18.02;;;3.33;;
68256;SDS011;55069;51.568;4.656;2023-05-23T13:52:50;16.50;;;2.90;;
68256;SDS011;55069;51.568;4.656;2023-05-23T13:55:16;11.63;;;2.95;;
68256;SDS011;55069;51.568;4.656;2023-05-23T13:57:42;13.80;;;3.35;;
68256;SDS011;55069;51.568;4.656;2023-05-23T14:00:08;13.67;;;2.47;;
68256;SDS011;55069;51.568;4.656;2023-05-23T14:02:35;17.60;;;3.50;;
68256;SDS011;55069;51.568;4.656;2023-05-23T14:05:01;14.87;;;2.93;;
68256;SDS011;55069;51.568;4.656;2023-05-23T14:07:26;12.90;;;2.85;;
68256;SDS011;55069;51.568;4.656;2023-05-23T14:09:52;11.40;;;2.90;;
68256;SDS011;55069;51.568;4.656;2023-05-23T14:12:18;16.38;;;2.75;;
68256;SDS011;55069;51.568;4.656;2023-05-23T14:14:43;8.80;;;2.47;;
68256;SDS011;55069;51.568;4.656;2023-05-23T14:17:13;10.33;;;2.17;;
68256;SDS011;55069;51.568;4.656;2023-05-23T14:19:41;15.90;;;3.35;;
68256;SDS011;55069;51.568;4.656;2023-05-23T14:22:07;11.80;;;2.72;;
68256;SDS011;55069;51.568;4.656;2023-05-23T14:24:33;15.50;;;3.00;;
68256;SDS011;55069;51.568;4.656;2023-05-23T14:26:58;20.53;;;2.90;;
68256;SDS011;55069;51.568;4.656;2023-05-23T14:29:24;12.88;;;2.25;;
68256;SDS011;55069;51.568;4.656;2023-05-23T14:31:50;11.70;;;2.53;;
68256;SDS011;55069;51.568;4.656;2023-05-23T14:34:15;17.70;;;3.15;;
68256;SDS011;55069;51.568;4.656;2023-05-23T14:36:41;14.93;;;3.20;;
68256;SDS011;55069;51.568;4.656;2023-05-23T14:39:07;13.48;;;3.13;;
68256;SDS011;55069;51.568;4.656;2023-05-23T14:41:33;15.30;;;2.77;;
68256;SDS011;55069;51.568;4.656;2023-05-23T14:43:58;14.00;;;2.50;;
68256;SDS011;55069;51.568;4.656;2023-05-23T14:46:24;14.67;;;2.60;;
68256;SDS011;55069;51.568;4.656;2023-05-23T14:48:50;12.17;;;2.57;;
68256;SDS011;55069;51.568;4.656;2023-05-23T14:51:15;17.33;;;2.75;;
68256;SDS011;55069;51.568;4.656;2023-05-23T14:53:41;10.40;;;2.55;;